sensor_id;sensor_type;location;lat;lon;timestamp;P1;durP1;ratioP1;P2;durP2;ratioP2
1995;SDS011;38556;47.068;15.408;2023-05-02T00:02:15;23.58;;;22.15;;
1995;SDS011;38556;47.068;15.408;2023-05-02T00:04:44;23.65;;;22.35;;
1995;SDS011;38556;47.068;15.408;2023-05-02T00:07:11;23.60;;;22.17;;
1995;SDS011;38556;47.068;15.408;2023-05-02T00:09:38;23.53;;;22.17;;
1995;SDS011;38556;47.068;15.408;2023-05-02T00:12:06;23.20;;;21.80;;
1995;SDS011;38556;47.068;15.408;2023-05-02T00:14:33;24.08;;;22.67;;
1995;SDS011;38556;47.068;15.408;2023-05-02T00:17:00;24.20;;;22.40;;
1995;SDS011;38556;47.068;15.408;2023-05-02T00:19:28;23.48;;;22.15;;
1995;SDS011;38556;47.068;15.408;2023-05-02T00:21:56;23.75;;;22.30;;
1995;SDS011;38556;47.068;15.408;2023-05-02T00:24:23;23.10;;;21.90;;
1995;SDS011;38556;47.068;15.408;2023-05-02T00:26:51;23.38;;;21.98;;
1995;SDS011;38556;47.068;15.408;2023-05-02T00:29:18;23.20;;;21.90;;
1995;SDS011;38556;47.068;15.408;2023-05-02T00:31:46;22.80;;;21.50;;
1995;SDS011;38556;47.068;15.408;2023-05-02T00:34:13;22.45;;;21.25;;
1995;SDS011;38556;47.068;15.408;2023-05-02T00:36:40;21.77;;;20.58;;
1995;SDS011;38556;47.068;15.408;2023-05-02T00:39:09;21.75;;;20.55;;
1995;SDS011;38556;47.068;15.408;2023-05-02T00:41:36;23.13;;;21.83;;
1995;SDS011;38556;47.068;15.408;2023-05-02T00:44:04;23.38;;;21.95;;
1995;SDS011;38556;47.068;15.408;2023-05-02T00:46:31;22.67;;;21.35;;
1995;SDS011;38556;47.068;15.408;2023-05-02T00:48:59;23.00;;;21.58;;
1995;SDS011;38556;47.068;15.408;2023-05-02T00:51:26;22.00;;;20.75;;
1995;SDS011;38556;47.068;15.408;2023-05-02T00:53:54;23.60;;;22.13;;
1995;SDS011;38556;47.068;15.408;2023-05-02T00:56:24;23.23;;;21.83;;
1995;SDS011;38556;47.068;15.408;2023-05-02T00:58:52;22.65;;;21.35;;
1995;SDS011;38556;47.068;15.408;2023-05-02T01:01:25;23.75;;;22.42;;
1995;SDS011;38556;47.068;15.408;2023-05-02T01:04:05;22.80;;;21.40;;
1995;SDS011;38556;47.068;15.408;2023-05-02T01:06:49;23.55;;;22.15;;
1995;SDS011;38556;47.068;15.408;2023-05-02T01:09:29;22.20;;;20.90;;
1995;SDS011;38556;47.068;15.408;2023-05-02T01:12:13;23.30;;;21.70;;
1995;SDS011;38556;47.068;15.408;2023-05-02T01:14:52;23.33;;;21.83;;
1995;SDS011;38556;47.068;15.408;2023-05-02T01:17:22;22.80;;;21.30;;
1995;SDS011;38556;47.068;15.408;2023-05-02T01:19:57;21.90;;;20.60;;
1995;SDS011;38556;47.068;15.408;2023-05-02T01:22:27;22.60;;;21.35;;
1995;SDS011;38556;47.068;15.408;2023-05-02T01:24:59;22.20;;;21.00;;
1995;SDS011;38556;47.068;15.408;2023-05-02T01:27:35;23.80;;;22.30;;
1995;SDS011;38556;47.068;15.408;2023-05-02T01:30:10;21.85;;;20.67;;
1995;SDS011;38556;47.068;15.408;2023-05-02T01:32:40;22.38;;;21.00;;
1995;SDS011;38556;47.068;15.408;2023-05-02T01:35:12;22.58;;;21.23;;
1995;SDS011;38556;47.068;15.408;2023-05-02T01:37:42;22.55;;;21.35;;
1995;SDS011;38556;47.068;15.408;2023-05-02T01:40:11;21.70;;;20.50;;
1995;SDS011;38556;47.068;15.408;2023-05-02T01:42:42;22.67;;;21.48;;
1995;SDS011;38556;47.068;15.408;2023-05-02T01:45:12;22.55;;;21.27;;
1995;SDS011;38556;47.068;15.408;2023-05-02T01:47:42;21.80;;;20.52;;
1995;SDS011;38556;47.068;15.408;2023-05-02T01:50:12;21.42;;;20.33;;
1995;SDS011;38556;47.068;15.408;2023-05-02T01:52:42;21.25;;;20.15;;
1995;SDS011;38556;47.068;15.408;2023-05-02T01:55:13;21.13;;;19.83;;
1995;SDS011;38556;47.068;15.408;2023-05-02T01:57:43;21.87;;;20.63;;
1995;SDS011;38556;47.068;15.408;2023-05-02T02:00:15;21.50;;;20.30;;
1995;SDS011;38556;47.068;15.408;2023-05-02T02:02:44;22.10;;;20.80;;
1995;SDS011;38556;47.068;15.408;2023-05-02T02:05:13;22.80;;;21.45;;
1995;SDS011;38556;47.068;15.408;2023-05-02T02:07:41;23.40;;;22.10;;
1995;SDS011;38556;47.068;15.408;2023-05-02T02:10:09;22.90;;;21.60;;
1995;SDS011;38556;47.068;15.408;2023-05-02T02:12:37;22.67;;;21.30;;
1995;SDS011;38556;47.068;15.408;2023-05-02T02:15:08;22.73;;;21.53;;
1995;SDS011;38556;47.068;15.408;2023-05-02T02:17:44;23.50;;;22.10;;
1995;SDS011;38556;47.068;15.408;2023-05-02T02:20:14;23.10;;;21.90;;
1995;SDS011;38556;47.068;15.408;2023-05-02T02:22:43;22.83;;;21.63;;
1995;SDS011;38556;47.068;15.408;2023-05-02T02:25:12;23.47;;;22.17;;
1995;SDS011;38556;47.068;15.408;2023-05-02T02:27:41;22.57;;;21.37;;
1995;SDS011;38556;47.068;15.408;2023-05-02T02:30:10;22.65;;;21.55;;
1995;SDS011;38556;47.068;15.408;2023-05-02T02:32:37;23.10;;;21.90;;
1995;SDS011;38556;47.068;15.408;2023-05-02T02:35:06;23.63;;;22.35;;
1995;SDS011;38556;47.068;15.408;2023-05-02T02:37:36;23.47;;;22.17;;
1995;SDS011;38556;47.068;15.408;2023-05-02T02:40:09;23.40;;;22.10;;
1995;SDS011;38556;47.068;15.408;2023-05-02T02:42:43;23.27;;;22.03;;
1995;SDS011;38556;47.068;15.408;2023-05-02T02:45:18;24.15;;;22.63;;
1995;SDS011;38556;47.068;15.408;2023-05-02T02:47:57;23.37;;;21.97;;
1995;SDS011;38556;47.068;15.408;2023-05-02T02:50:37;23.50;;;22.20;;
1995;SDS011;38556;47.068;15.408;2023-05-02T02:53:13;23.83;;;22.45;;
1995;SDS011;38556;47.068;15.408;2023-05-02T02:55:44;24.50;;;23.20;;
1995;SDS011;38556;47.068;15.408;2023-05-02T02:58:34;26.23;;;24.75;;
1995;SDS011;38556;47.068;15.408;2023-05-02T03:01:14;25.10;;;23.60;;
1995;SDS011;38556;47.068;15.408;2023-05-02T03:03:43;24.73;;;23.15;;
1995;SDS011;38556;47.068;15.408;2023-05-02T03:06:14;26.33;;;24.60;;
1995;SDS011;38556;47.068;15.408;2023-05-02T03:08:42;23.15;;;21.95;;
1995;SDS011;38556;47.068;15.408;2023-05-02T03:11:10;24.90;;;23.53;;
1995;SDS011;38556;47.068;15.408;2023-05-02T03:13:37;25.23;;;23.47;;
1995;SDS011;38556;47.068;15.408;2023-05-02T03:19:08;24.90;;;23.50;;
1995;SDS011;38556;47.068;15.408;2023-05-02T03:21:36;24.67;;;23.17;;
1995;SDS011;38556;47.068;15.408;2023-05-02T03:24:03;25.00;;;23.45;;
1995;SDS011;38556;47.068;15.408;2023-05-02T03:26:31;24.13;;;22.83;;
1995;SDS011;38556;47.068;15.408;2023-05-02T03:28:58;24.27;;;22.87;;
1995;SDS011;38556;47.068;15.408;2023-05-02T03:31:26;25.40;;;23.60;;
1995;SDS011;38556;47.068;15.408;2023-05-02T03:33:53;23.77;;;22.48;;
1995;SDS011;38556;47.068;15.408;2023-05-02T03:36:21;25.70;;;23.80;;
1995;SDS011;38556;47.068;15.408;2023-05-02T03:38:49;25.33;;;23.80;;
1995;SDS011;38556;47.068;15.408;2023-05-02T03:41:17;24.65;;;23.25;;
1995;SDS011;38556;47.068;15.408;2023-05-02T03:43:45;23.93;;;22.63;;
1995;SDS011;38556;47.068;15.408;2023-05-02T03:46:12;24.83;;;23.20;;
1995;SDS011;38556;47.068;15.408;2023-05-02T03:48:39;24.37;;;23.07;;
1995;SDS011;38556;47.068;15.408;2023-05-02T03:51:07;24.40;;;22.83;;
1995;SDS011;38556;47.068;15.408;2023-05-02T03:53:34;24.42;;;22.85;;
1995;SDS011;38556;47.068;15.408;2023-05-02T03:56:04;24.58;;;23.17;;
1995;SDS011;38556;47.068;15.408;2023-05-02T03:58:32;23.50;;;22.10;;
1995;SDS011;38556;47.068;15.408;2023-05-02T04:01:01;25.90;;;24.40;;
1995;SDS011;38556;47.068;15.408;2023-05-02T04:03:28;24.90;;;23.40;;
1995;SDS011;38556;47.068;15.408;2023-05-02T04:05:55;26.00;;;24.43;;
1995;SDS011;38556;47.068;15.408;2023-05-02T04:08:22;25.90;;;24.05;;
1995;SDS011;38556;47.068;15.408;2023-05-02T04:10:50;25.23;;;23.67;;
1995;SDS011;38556;47.068;15.408;2023-05-02T04:13:19;26.00;;;24.30;;
1995;SDS011;38556;47.068;15.408;2023-05-02T04:15:46;25.70;;;24.00;;
1995;SDS011;38556;47.068;15.408;2023-05-02T04:18:13;25.20;;;23.90;;
1995;SDS011;38556;47.068;15.408;2023-05-02T04:20:41;26.80;;;25.10;;
1995;SDS011;38556;47.068;15.408;2023-05-02T04:23:09;26.27;;;24.67;;
1995;SDS011;38556;47.068;15.408;2023-05-02T04:25:36;24.88;;;23.55;;
1995;SDS011;38556;47.068;15.408;2023-05-02T04:28:04;24.38;;;22.98;;
1995;SDS011;38556;47.068;15.408;2023-05-02T04:30:33;26.20;;;24.75;;
1995;SDS011;38556;47.068;15.408;2023-05-02T04:33:01;24.38;;;22.75;;
1995;SDS011;38556;47.068;15.408;2023-05-02T04:35:28;24.55;;;23.27;;
1995;SDS011;38556;47.068;15.408;2023-05-02T04:37:55;25.73;;;24.33;;
1995;SDS011;38556;47.068;15.408;2023-05-02T04:40:23;25.85;;;24.45;;
1995;SDS011;38556;47.068;15.408;2023-05-02T04:42:50;25.00;;;23.60;;
1995;SDS011;38556;47.068;15.408;2023-05-02T04:45:18;24.73;;;23.05;;
1995;SDS011;38556;47.068;15.408;2023-05-02T04:47:47;25.77;;;24.38;;
1995;SDS011;38556;47.068;15.408;2023-05-02T04:50:14;25.63;;;23.98;;
1995;SDS011;38556;47.068;15.408;2023-05-02T04:52:41;24.80;;;23.47;;
1995;SDS011;38556;47.068;15.408;2023-05-02T04:55:08;26.40;;;24.80;;
1995;SDS011;38556;47.068;15.408;2023-05-02T04:57:36;24.37;;;23.07;;
1995;SDS011;38556;47.068;15.408;2023-05-02T05:00:04;24.35;;;23.05;;
1995;SDS011;38556;47.068;15.408;2023-05-02T05:02:32;23.80;;;22.60;;
1995;SDS011;38556;47.068;15.408;2023-05-02T05:05:01;25.58;;;24.25;;
1995;SDS011;38556;47.068;15.408;2023-05-02T05:07:29;23.67;;;22.38;;
1995;SDS011;38556;47.068;15.408;2023-05-02T05:09:56;25.13;;;23.63;;
1995;SDS011;38556;47.068;15.408;2023-05-02T05:12:23;23.73;;;22.33;;
1995;SDS011;38556;47.068;15.408;2023-05-02T05:14:50;24.77;;;23.38;;
1995;SDS011;38556;47.068;15.408;2023-05-02T05:17:17;25.20;;;23.55;;
1995;SDS011;38556;47.068;15.408;2023-05-02T05:19:45;24.63;;;23.23;;
1995;SDS011;38556;47.068;15.408;2023-05-02T05:22:14;24.77;;;23.17;;
1995;SDS011;38556;47.068;15.408;2023-05-02T05:24:41;22.90;;;21.60;;
1995;SDS011;38556;47.068;15.408;2023-05-02T05:27:09;23.70;;;22.30;;
1995;SDS011;38556;47.068;15.408;2023-05-02T05:29:36;24.45;;;23.15;;
1995;SDS011;38556;47.068;15.408;2023-05-02T05:32:04;25.70;;;24.30;;
1995;SDS011;38556;47.068;15.408;2023-05-02T05:34:31;25.30;;;24.00;;
1995;SDS011;38556;47.068;15.408;2023-05-02T05:36:59;26.15;;;24.70;;
1995;SDS011;38556;47.068;15.408;2023-05-02T05:39:27;24.50;;;23.20;;
1995;SDS011;38556;47.068;15.408;2023-05-02T05:41:55;24.02;;;22.70;;
1995;SDS011;38556;47.068;15.408;2023-05-02T05:44:23;24.75;;;23.35;;
1995;SDS011;38556;47.068;15.408;2023-05-02T05:46:50;24.63;;;23.23;;
1995;SDS011;38556;47.068;15.408;2023-05-02T05:49:18;24.27;;;22.95;;
1995;SDS011;38556;47.068;15.408;2023-05-02T05:51:46;24.13;;;22.70;;
1995;SDS011;38556;47.068;15.408;2023-05-02T05:54:13;24.95;;;23.42;;
1995;SDS011;38556;47.068;15.408;2023-05-02T05:56:43;24.83;;;23.52;;
1995;SDS011;38556;47.068;15.408;2023-05-02T05:59:11;25.20;;;23.80;;
1995;SDS011;38556;47.068;15.408;2023-05-02T06:01:39;22.63;;;21.50;;
1995;SDS011;38556;47.068;15.408;2023-05-02T06:04:06;24.33;;;22.90;;
1995;SDS011;38556;47.068;15.408;2023-05-02T06:06:34;24.65;;;23.35;;
1995;SDS011;38556;47.068;15.408;2023-05-02T06:09:01;24.20;;;22.60;;
1995;SDS011;38556;47.068;15.408;2023-05-02T06:11:29;24.60;;;23.08;;
1995;SDS011;38556;47.068;15.408;2023-05-02T06:13:58;24.95;;;23.25;;
1995;SDS011;38556;47.068;15.408;2023-05-02T06:16:25;26.10;;;24.52;;
1995;SDS011;38556;47.068;15.408;2023-05-02T06:18:52;26.55;;;24.95;;
1995;SDS011;38556;47.068;15.408;2023-05-02T06:21:20;26.80;;;25.10;;
1995;SDS011;38556;47.068;15.408;2023-05-02T06:23:47;25.63;;;24.25;;
1995;SDS011;38556;47.068;15.408;2023-05-02T06:26:14;26.83;;;25.15;;
1995;SDS011;38556;47.068;15.408;2023-05-02T06:28:42;24.65;;;23.13;;
1995;SDS011;38556;47.068;15.408;2023-05-02T06:31:11;25.67;;;23.50;;
1995;SDS011;38556;47.068;15.408;2023-05-02T06:33:38;24.38;;;23.00;;
1995;SDS011;38556;47.068;15.408;2023-05-02T06:36:05;25.45;;;23.83;;
1995;SDS011;38556;47.068;15.408;2023-05-02T06:38:33;23.88;;;22.50;;
1995;SDS011;38556;47.068;15.408;2023-05-02T06:41:00;25.70;;;24.20;;
1995;SDS011;38556;47.068;15.408;2023-05-02T06:43:28;24.63;;;23.33;;
1995;SDS011;38556;47.068;15.408;2023-05-02T06:45:55;25.70;;;24.08;;
1995;SDS011;38556;47.068;15.408;2023-05-02T06:48:24;24.60;;;23.20;;
1995;SDS011;38556;47.068;15.408;2023-05-02T06:50:51;24.58;;;23.20;;
1995;SDS011;38556;47.068;15.408;2023-05-02T06:53:19;24.20;;;22.90;;
1995;SDS011;38556;47.068;15.408;2023-05-02T06:55:46;22.48;;;21.17;;
1995;SDS011;38556;47.068;15.408;2023-05-02T06:58:15;22.58;;;21.38;;
1995;SDS011;38556;47.068;15.408;2023-05-02T07:00:42;23.52;;;22.15;;
1995;SDS011;38556;47.068;15.408;2023-05-02T07:03:10;23.88;;;22.48;;
1995;SDS011;38556;47.068;15.408;2023-05-02T07:05:38;23.95;;;22.55;;
1995;SDS011;38556;47.068;15.408;2023-05-02T07:08:06;23.58;;;22.10;;
1995;SDS011;38556;47.068;15.408;2023-05-02T07:10:34;27.10;;;25.50;;
1995;SDS011;38556;47.068;15.408;2023-05-02T07:13:02;24.80;;;23.35;;
1995;SDS011;38556;47.068;15.408;2023-05-02T07:15:29;23.35;;;22.05;;
1995;SDS011;38556;47.068;15.408;2023-05-02T07:17:56;22.92;;;21.42;;
1995;SDS011;38556;47.068;15.408;2023-05-02T07:20:23;24.15;;;22.65;;
1995;SDS011;38556;47.068;15.408;2023-05-02T07:22:52;21.75;;;20.60;;
1995;SDS011;38556;47.068;15.408;2023-05-02T07:25:20;22.77;;;21.38;;
1995;SDS011;38556;47.068;15.408;2023-05-02T07:27:47;21.83;;;20.70;;
1995;SDS011;38556;47.068;15.408;2023-05-02T07:30:14;21.90;;;20.80;;
1995;SDS011;38556;47.068;15.408;2023-05-02T07:32:42;22.13;;;20.95;;
1995;SDS011;38556;47.068;15.408;2023-05-02T07:35:10;22.30;;;21.08;;
1995;SDS011;38556;47.068;15.408;2023-05-02T07:37:38;21.27;;;20.17;;
1995;SDS011;38556;47.068;15.408;2023-05-02T07:40:08;22.55;;;21.35;;
1995;SDS011;38556;47.068;15.408;2023-05-02T07:42:35;22.90;;;21.70;;
1995;SDS011;38556;47.068;15.408;2023-05-02T07:45:03;22.73;;;21.30;;
1995;SDS011;38556;47.068;15.408;2023-05-02T07:47:31;22.83;;;21.52;;
1995;SDS011;38556;47.068;15.408;2023-05-02T07:49:59;23.08;;;21.77;;
1995;SDS011;38556;47.068;15.408;2023-05-02T07:52:27;22.15;;;21.00;;
1995;SDS011;38556;47.068;15.408;2023-05-02T07:54:54;22.45;;;21.02;;
1995;SDS011;38556;47.068;15.408;2023-05-02T07:57:23;21.33;;;20.23;;
1995;SDS011;38556;47.068;15.408;2023-05-02T07:59:50;21.83;;;20.65;;
1995;SDS011;38556;47.068;15.408;2023-05-02T08:02:17;21.67;;;20.48;;
1995;SDS011;38556;47.068;15.408;2023-05-02T08:04:48;22.85;;;21.65;;
1995;SDS011;38556;47.068;15.408;2023-05-02T08:07:15;21.63;;;20.42;;
1995;SDS011;38556;47.068;15.408;2023-05-02T08:09:43;23.42;;;22.13;;
1995;SDS011;38556;47.068;15.408;2023-05-02T08:12:10;22.85;;;21.50;;
1995;SDS011;38556;47.068;15.408;2023-05-02T08:14:39;23.50;;;22.30;;
1995;SDS011;38556;47.068;15.408;2023-05-02T08:17:06;22.00;;;20.90;;
1995;SDS011;38556;47.068;15.408;2023-05-02T08:19:34;21.60;;;20.50;;
1995;SDS011;38556;47.068;15.408;2023-05-02T08:22:01;21.92;;;20.88;;
1995;SDS011;38556;47.068;15.408;2023-05-02T08:24:29;21.75;;;20.65;;
1995;SDS011;38556;47.068;15.408;2023-05-02T08:26:56;21.30;;;20.17;;
1995;SDS011;38556;47.068;15.408;2023-05-02T08:29:23;21.67;;;20.67;;
1995;SDS011;38556;47.068;15.408;2023-05-02T08:31:52;22.05;;;21.05;;
1995;SDS011;38556;47.068;15.408;2023-05-02T08:34:19;21.45;;;20.40;;
1995;SDS011;38556;47.068;15.408;2023-05-02T08:36:46;22.63;;;21.55;;
1995;SDS011;38556;47.068;15.408;2023-05-02T08:39:14;22.42;;;21.33;;
1995;SDS011;38556;47.068;15.408;2023-05-02T08:41:42;21.45;;;20.45;;
1995;SDS011;38556;47.068;15.408;2023-05-02T08:44:10;20.90;;;19.90;;
1995;SDS011;38556;47.068;15.408;2023-05-02T08:46:39;22.13;;;21.05;;
1995;SDS011;38556;47.068;15.408;2023-05-02T08:49:10;20.00;;;18.90;;
1995;SDS011;38556;47.068;15.408;2023-05-02T08:51:38;21.77;;;20.77;;
1995;SDS011;38556;47.068;15.408;2023-05-02T08:54:06;21.60;;;20.60;;
1995;SDS011;38556;47.068;15.408;2023-05-02T08:56:35;22.25;;;21.05;;
1995;SDS011;38556;47.068;15.408;2023-05-02T08:59:05;21.52;;;20.52;;
1995;SDS011;38556;47.068;15.408;2023-05-02T09:01:32;21.65;;;20.52;;
1995;SDS011;38556;47.068;15.408;2023-05-02T09:04:02;20.40;;;19.50;;
1995;SDS011;38556;47.068;15.408;2023-05-02T09:06:31;20.30;;;19.30;;
1995;SDS011;38556;47.068;15.408;2023-05-02T09:08:59;19.17;;;18.08;;
1995;SDS011;38556;47.068;15.408;2023-05-02T09:11:27;17.90;;;17.10;;
1995;SDS011;38556;47.068;15.408;2023-05-02T09:13:55;19.08;;;18.17;;
1995;SDS011;38556;47.068;15.408;2023-05-02T09:16:28;19.38;;;18.48;;
1995;SDS011;38556;47.068;15.408;2023-05-02T09:18:56;19.23;;;18.33;;
1995;SDS011;38556;47.068;15.408;2023-05-02T09:21:25;20.67;;;19.58;;
1995;SDS011;38556;47.068;15.408;2023-05-02T09:24:13;20.10;;;19.10;;
1995;SDS011;38556;47.068;15.408;2023-05-02T09:26:42;19.40;;;18.50;;
1995;SDS011;38556;47.068;15.408;2023-05-02T09:29:21;20.15;;;19.15;;
1995;SDS011;38556;47.068;15.408;2023-05-02T09:31:49;20.33;;;19.30;;
1995;SDS011;38556;47.068;15.408;2023-05-02T09:34:17;19.55;;;18.60;;
1995;SDS011;38556;47.068;15.408;2023-05-02T09:36:45;19.90;;;19.00;;
1995;SDS011;38556;47.068;15.408;2023-05-02T09:39:16;19.75;;;18.85;;
1995;SDS011;38556;47.068;15.408;2023-05-02T09:41:53;20.13;;;19.13;;
1995;SDS011;38556;47.068;15.408;2023-05-02T09:44:21;20.63;;;19.52;;
1995;SDS011;38556;47.068;15.408;2023-05-02T09:46:50;18.70;;;17.80;;
1995;SDS011;38556;47.068;15.408;2023-05-02T09:49:18;19.73;;;18.80;;
1995;SDS011;38556;47.068;15.408;2023-05-02T09:52:11;19.45;;;18.55;;
1995;SDS011;38556;47.068;15.408;2023-05-02T09:54:40;19.45;;;18.45;;
1995;SDS011;38556;47.068;15.408;2023-05-02T09:57:08;20.15;;;19.15;;
1995;SDS011;38556;47.068;15.408;2023-05-02T09:59:36;20.02;;;18.73;;
1995;SDS011;38556;47.068;15.408;2023-05-02T10:02:05;19.35;;;18.45;;
1995;SDS011;38556;47.068;15.408;2023-05-02T10:04:34;19.60;;;18.60;;
1995;SDS011;38556;47.068;15.408;2023-05-02T10:07:02;18.90;;;18.10;;
1995;SDS011;38556;47.068;15.408;2023-05-02T10:09:30;19.10;;;18.10;;
1995;SDS011;38556;47.068;15.408;2023-05-02T10:12:03;19.15;;;18.35;;
1995;SDS011;38556;47.068;15.408;2023-05-02T10:14:34;19.08;;;18.20;;
1995;SDS011;38556;47.068;15.408;2023-05-02T10:17:08;19.80;;;18.85;;
1995;SDS011;38556;47.068;15.408;2023-05-02T10:19:40;19.67;;;18.77;;
1995;SDS011;38556;47.068;15.408;2023-05-02T10:22:18;18.93;;;18.03;;
1995;SDS011;38556;47.068;15.408;2023-05-02T10:24:46;18.33;;;17.52;;
1995;SDS011;38556;47.068;15.408;2023-05-02T10:27:16;18.30;;;17.50;;
1995;SDS011;38556;47.068;15.408;2023-05-02T10:29:45;18.88;;;18.08;;
1995;SDS011;38556;47.068;15.408;2023-05-02T10:32:12;18.20;;;17.40;;
1995;SDS011;38556;47.068;15.408;2023-05-02T10:34:43;18.50;;;17.70;;
1995;SDS011;38556;47.068;15.408;2023-05-02T10:37:11;18.55;;;17.67;;
1995;SDS011;38556;47.068;15.408;2023-05-02T10:39:39;19.73;;;18.75;;
1995;SDS011;38556;47.068;15.408;2023-05-02T10:42:06;19.00;;;18.10;;
1995;SDS011;38556;47.068;15.408;2023-05-02T10:44:37;18.50;;;17.60;;
1995;SDS011;38556;47.068;15.408;2023-05-02T10:47:16;19.50;;;18.60;;
1995;SDS011;38556;47.068;15.408;2023-05-02T10:49:48;18.23;;;17.42;;
1995;SDS011;38556;47.068;15.408;2023-05-02T10:52:25;17.48;;;16.67;;
1995;SDS011;38556;47.068;15.408;2023-05-02T11:00:41;21.60;;;20.25;;
1995;SDS011;38556;47.068;15.408;2023-05-02T11:03:08;17.95;;;17.25;;
1995;SDS011;38556;47.068;15.408;2023-05-02T11:05:43;18.40;;;17.60;;
1995;SDS011;38556;47.068;15.408;2023-05-02T11:08:30;17.63;;;16.85;;
1995;SDS011;38556;47.068;15.408;2023-05-02T11:11:10;18.00;;;17.20;;
1995;SDS011;38556;47.068;15.408;2023-05-02T11:14:07;19.65;;;18.10;;
1995;SDS011;38556;47.068;15.408;2023-05-02T11:17:05;18.40;;;17.60;;
1995;SDS011;38556;47.068;15.408;2023-05-02T11:22:56;18.35;;;17.55;;
1995;SDS011;38556;47.068;15.408;2023-05-02T11:25:29;18.93;;;18.13;;
1995;SDS011;38556;47.068;15.408;2023-05-02T11:28:04;18.73;;;17.73;;
1995;SDS011;38556;47.068;15.408;2023-05-02T11:30:40;17.30;;;16.60;;
1995;SDS011;38556;47.068;15.408;2023-05-02T11:33:11;18.17;;;17.27;;
1995;SDS011;38556;47.068;15.408;2023-05-02T11:35:48;17.40;;;16.70;;
1995;SDS011;38556;47.068;15.408;2023-05-02T11:38:17;18.50;;;17.70;;
1995;SDS011;38556;47.068;15.408;2023-05-02T11:40:56;17.90;;;17.10;;
1995;SDS011;38556;47.068;15.408;2023-05-02T11:43:25;18.60;;;17.80;;
1995;SDS011;38556;47.068;15.408;2023-05-02T11:45:54;19.02;;;18.15;;
1995;SDS011;38556;47.068;15.408;2023-05-02T11:48:25;18.50;;;17.70;;
1995;SDS011;38556;47.068;15.408;2023-05-02T11:50:54;18.52;;;17.73;;
1995;SDS011;38556;47.068;15.408;2023-05-02T11:53:23;19.13;;;18.23;;
1995;SDS011;38556;47.068;15.408;2023-05-02T11:55:52;18.90;;;18.10;;
1995;SDS011;38556;47.068;15.408;2023-05-02T11:58:21;18.20;;;17.45;;
1995;SDS011;38556;47.068;15.408;2023-05-02T12:00:51;18.17;;;17.40;;
1995;SDS011;38556;47.068;15.408;2023-05-02T12:03:23;19.73;;;18.83;;
1995;SDS011;38556;47.068;15.408;2023-05-02T12:05:53;18.60;;;17.80;;
1995;SDS011;38556;47.068;15.408;2023-05-02T12:08:22;19.75;;;18.92;;
1995;SDS011;38556;47.068;15.408;2023-05-02T12:10:51;19.15;;;18.35;;
1995;SDS011;38556;47.068;15.408;2023-05-02T12:13:20;19.13;;;18.17;;
1995;SDS011;38556;47.068;15.408;2023-05-02T12:15:49;18.05;;;17.35;;
1995;SDS011;38556;47.068;15.408;2023-05-02T12:18:18;18.50;;;17.70;;
1995;SDS011;38556;47.068;15.408;2023-05-02T12:20:50;17.40;;;16.60;;
1995;SDS011;38556;47.068;15.408;2023-05-02T12:23:18;18.58;;;17.77;;
1995;SDS011;38556;47.068;15.408;2023-05-02T12:25:46;17.80;;;17.10;;
1995;SDS011;38556;47.068;15.408;2023-05-02T12:28:17;18.33;;;17.42;;
1995;SDS011;38556;47.068;15.408;2023-05-02T12:30:46;17.60;;;16.90;;
1995;SDS011;38556;47.068;15.408;2023-05-02T12:33:15;18.85;;;18.05;;
1995;SDS011;38556;47.068;15.408;2023-05-02T12:35:43;18.35;;;17.55;;
1995;SDS011;38556;47.068;15.408;2023-05-02T12:38:13;18.50;;;17.70;;
1995;SDS011;38556;47.068;15.408;2023-05-02T12:40:49;18.42;;;17.63;;
1995;SDS011;38556;47.068;15.408;2023-05-02T12:43:17;18.20;;;17.40;;
1995;SDS011;38556;47.068;15.408;2023-05-02T12:45:46;18.17;;;17.38;;
1995;SDS011;38556;47.068;15.408;2023-05-02T12:48:21;18.52;;;17.63;;
1995;SDS011;38556;47.068;15.408;2023-05-02T12:50:50;16.90;;;16.23;;
1995;SDS011;38556;47.068;15.408;2023-05-02T12:56:06;16.80;;;16.00;;
1995;SDS011;38556;47.068;15.408;2023-05-02T12:58:41;18.05;;;17.15;;
1995;SDS011;38556;47.068;15.408;2023-05-02T13:01:10;16.85;;;16.00;;
1995;SDS011;38556;47.068;15.408;2023-05-02T13:03:37;17.30;;;16.50;;
1995;SDS011;38556;47.068;15.408;2023-05-02T13:06:05;17.35;;;16.55;;
1995;SDS011;38556;47.068;15.408;2023-05-02T13:08:32;16.75;;;15.95;;
1995;SDS011;38556;47.068;15.408;2023-05-02T13:11:02;17.17;;;16.38;;
1995;SDS011;38556;47.068;15.408;2023-05-02T13:13:29;16.42;;;15.73;;
1995;SDS011;38556;47.068;15.408;2023-05-02T13:15:57;17.20;;;16.50;;
1995;SDS011;38556;47.068;15.408;2023-05-02T13:18:24;16.55;;;15.80;;
1995;SDS011;38556;47.068;15.408;2023-05-02T13:20:53;16.13;;;15.35;;
1995;SDS011;38556;47.068;15.408;2023-05-02T13:23:20;17.10;;;16.33;;
1995;SDS011;38556;47.068;15.408;2023-05-02T13:25:47;17.00;;;16.30;;
1995;SDS011;38556;47.068;15.408;2023-05-02T13:28:16;16.70;;;16.00;;
1995;SDS011;38556;47.068;15.408;2023-05-02T13:30:43;15.95;;;15.25;;
1995;SDS011;38556;47.068;15.408;2023-05-02T13:33:10;16.17;;;15.48;;
1995;SDS011;38556;47.068;15.408;2023-05-02T13:35:38;15.55;;;14.95;;
1995;SDS011;38556;47.068;15.408;2023-05-02T13:38:05;16.45;;;15.75;;
1995;SDS011;38556;47.068;15.408;2023-05-02T13:40:33;17.50;;;16.60;;
1995;SDS011;38556;47.068;15.408;2023-05-02T13:43:00;15.80;;;15.10;;
1995;SDS011;38556;47.068;15.408;2023-05-02T13:45:29;15.52;;;14.93;;
1995;SDS011;38556;47.068;15.408;2023-05-02T13:47:56;15.45;;;14.80;;
1995;SDS011;38556;47.068;15.408;2023-05-02T13:50:23;15.18;;;14.57;;
1995;SDS011;38556;47.068;15.408;2023-05-02T13:52:51;15.57;;;14.88;;
1995;SDS011;38556;47.068;15.408;2023-05-02T13:55:17;15.65;;;15.02;;
1995;SDS011;38556;47.068;15.408;2023-05-02T13:57:45;15.63;;;15.02;;
1995;SDS011;38556;47.068;15.408;2023-05-02T14:00:13;15.43;;;14.73;;
1995;SDS011;38556;47.068;15.408;2023-05-02T14:02:41;15.63;;;15.02;;
1995;SDS011;38556;47.068;15.408;2023-05-02T14:05:12;15.00;;;14.40;;
1995;SDS011;38556;47.068;15.408;2023-05-02T14:07:39;15.60;;;14.90;;
1995;SDS011;38556;47.068;15.408;2023-05-02T14:10:07;15.65;;;15.05;;
1995;SDS011;38556;47.068;15.408;2023-05-02T14:12:35;15.80;;;15.10;;
1995;SDS011;38556;47.068;15.408;2023-05-02T14:15:03;15.63;;;14.93;;
1995;SDS011;38556;47.068;15.408;2023-05-02T14:17:30;15.30;;;14.70;;
1995;SDS011;38556;47.068;15.408;2023-05-02T14:19:59;15.75;;;15.15;;
1995;SDS011;38556;47.068;15.408;2023-05-02T14:22:26;14.80;;;14.20;;
1995;SDS011;38556;47.068;15.408;2023-05-02T14:24:53;15.48;;;14.88;;
1995;SDS011;38556;47.068;15.408;2023-05-02T14:27:21;15.95;;;15.25;;
1995;SDS011;38556;47.068;15.408;2023-05-02T14:29:49;16.08;;;15.27;;
1995;SDS011;38556;47.068;15.408;2023-05-02T14:32:17;15.43;;;14.82;;
1995;SDS011;38556;47.068;15.408;2023-05-02T14:34:44;15.57;;;14.93;;
1995;SDS011;38556;47.068;15.408;2023-05-02T14:37:13;15.95;;;15.25;;
1995;SDS011;38556;47.068;15.408;2023-05-02T14:39:40;14.25;;;13.75;;
1995;SDS011;38556;47.068;15.408;2023-05-02T14:42:10;14.95;;;14.35;;
1995;SDS011;38556;47.068;15.408;2023-05-02T14:44:37;15.43;;;14.82;;
1995;SDS011;38556;47.068;15.408;2023-05-02T14:47:05;15.27;;;14.60;;
1995;SDS011;38556;47.068;15.408;2023-05-02T14:49:32;16.23;;;15.52;;